Time;durP1;ratioP1;P1;durP2;ratioP2;P2;SDS_P1;SDS_P2;PMS_P1;PMS_P2;Temp;Humidity;BMP_temperature;BMP_pressure;BME280_temperature;BME280_humidity;BME280_pressure;Samples;Min_cycle;Max_cycle;Signal;HPM_P1;HPM_P2
2022/12/21 00:00:18;;;;;;;119.47;36.75;;;;;;;-3.56;95.42;98691.25;10295178;28;20022;-55
2022/12/21 00:05:17;;;;;;;104.90;38.08;;;;;;;-3.48;95.69;98689.22;10294654;28;20084;-55
2022/12/21 00:10:16;;;;;;;114.78;38.25;;;;;;;-3.54;95.55;98682.09;10293321;28;20054;-55
2022/12/21 00:15:15;;;;;;;108.97;38.53;;;;;;;-3.59;95.14;98666.56;10293189;28;20073;-55
2022/12/21 00:20:14;;;;;;;150.07;42.42;;;;;;;-3.70;95.98;98670.00;10293087;28;20044;-55
2022/12/21 00:25:13;;;;;;;127.32;36.55;;;;;;;-3.79;96.31;98662.66;10294056;28;20041;-55
2022/12/21 00:30:12;;;;;;;172.18;43.25;;;;;;;-3.87;95.58;98684.06;10293232;28;20057;-55
2022/12/21 00:35:11;;;;;;;130.27;36.20;;;;;;;-3.97;95.66;98694.34;10292006;28;20061;-55
2022/12/21 00:40:11;;;;;;;117.07;32.92;;;;;;;-3.93;96.50;98698.81;10293656;28;20040;-55
2022/12/21 00:45:09;;;;;;;;;;;;;;;-3.93;96.09;98693.75;10282161;28;20054;-55
2022/12/21 00:50:08;;;;;;;115.43;32.00;;;;;;;-3.98;95.83;98680.75;10264728;28;19936;-55
2022/12/21 00:55:08;;;;;;;113.72;34.63;;;;;;;-3.94;96.09;98681.84;10271006;28;20480;-55
2022/12/21 01:00:09;;;;;;;151.40;33.42;;;;;;;-3.92;96.24;98660.03;10271739;28;20072;-55
2022/12/21 01:05:08;;;;;;;127.30;35.38;;;;;;;-3.91;96.46;98674.47;10269696;28;20158;-55
2022/12/21 01:10:08;;;;;;;111.15;31.13;;;;;;;-4.00;95.97;98662.03;10281484;28;20121;-55
2022/12/21 01:15:08;;;;;;;132.82;35.03;;;;;;;-4.06;96.65;98645.50;10270132;28;20065;-55
2022/12/21 01:20:08;;;;;;;85.28;31.02;;;;;;;-3.95;96.52;98659.84;10273484;28;20057;-55
2022/12/21 01:25:08;;;;;;;141.43;35.45;;;;;;;-4.06;96.01;98648.06;10270582;28;20484;-55
2022/12/21 01:30:07;;;;;;;99.55;32.10;;;;;;;-4.04;95.72;98652.44;10272768;28;20136;-55
2022/12/21 01:35:06;;;;;;;89.07;30.88;;;;;;;-4.11;96.46;98664.59;10270602;28;20045;-55
2022/12/21 01:40:06;;;;;;;132.43;34.03;;;;;;;-4.25;95.66;98638.28;10269381;28;20109;-55
2022/12/21 01:45:17;;;;;;;105.53;32.55;;;;;;;-4.11;95.67;98654.47;10269363;28;20128;-55
2022/12/21 01:50:28;;;;;;;98.78;32.28;;;;;;;-4.00;95.67;98641.75;10274763;28;20069;-55
2022/12/21 01:55:29;;;;;;;110.47;34.78;;;;;;;-3.87;95.39;98643.47;10270852;28;20049;-55
2022/12/21 02:00:28;;;;;;;111.22;32.85;;;;;;;-4.01;95.75;98642.50;10268234;28;20774;-55
2022/12/21 02:05:42;;;;;;;120.25;35.53;;;;;;;-4.07;96.23;98628.53;10271741;28;20729;-55
2022/12/21 02:10:41;;;;;;;107.85;32.85;;;;;;;-4.10;95.81;98619.06;10269692;28;20550;-55
2022/12/21 02:15:46;;;;;;;;;;;;;;;-4.13;95.86;98611.25;10271098;28;20461;-55
2022/12/21 02:20:54;;;;;;;131.45;32.45;;;;;;;-4.25;96.55;98607.88;10271113;28;19957;-55
2022/12/21 02:26:17;;;;;;;194.90;35.97;;;;;;;-4.35;96.09;98611.38;10270282;28;20059;-55
2022/12/21 02:31:58;;;;;;;128.75;33.63;;;;;;;-4.36;96.60;98606.22;10268440;28;20068;-55
2022/12/21 02:37:04;;;;;;;140.50;29.80;;;;;;;-4.44;96.83;98615.81;10261016;28;20323;-55
2022/12/21 02:44:12;;;;;;;102.53;31.17;;;;;;;-4.48;96.81;98609.63;10269272;28;20066;-55
2022/12/21 02:47:52;;;;;;;121.40;31.20;;;;;;;-4.56;95.65;98609.84;10271613;28;20476;-55
2022/12/21 02:52:55;;;;;;;121.00;32.33;;;;;;;-4.51;96.67;98600.94;10268267;28;20060;-55
2022/12/21 02:58:12;;;;;;;248.43;36.20;;;;;;;-4.58;96.31;98603.78;10266404;28;20537;-55
2022/12/21 03:03:48;;;;;;;101.28;30.50;;;;;;;-4.75;97.19;98600.06;10271580;28;20065;-55
2022/12/21 03:09:17;;;;;;;116.63;29.42;;;;;;;-4.74;97.54;98592.59;10275956;28;20076;-55
2022/12/21 03:14:42;;;;;;;97.43;29.83;;;;;;;-4.58;96.80;98591.13;10277450;28;20057;-55
2022/12/21 03:20:09;;;;;;;109.10;30.27;;;;;;;-4.52;96.81;98564.59;10277394;28;20058;-55
2022/12/21 03:25:41;;;;;;;148.07;35.95;;;;;;;-4.61;97.01;98572.44;10254701;28;20149;-55
2022/12/21 03:30:49;;;;;;;103.90;31.30;;;;;;;-4.59;97.36;98567.47;10272637;28;20069;-55
2022/12/21 03:35:54;;;;;;;94.28;28.40;;;;;;;-4.62;96.93;98560.53;10277014;28;20058;-55
2022/12/21 03:40:57;;;;;;;87.95;27.85;;;;;;;-4.54;97.64;98545.88;10274861;28;20080;-55
2022/12/21 03:46:05;;;;;;;84.13;29.88;;;;;;;-4.48;96.73;98547.97;10275993;28;20054;-55
2022/12/21 03:51:13;;;;;;;86.43;30.50;;;;;;;-4.52;96.67;98523.19;10277469;28;20067;-55
2022/12/21 03:56:26;;;;;;;117.82;30.85;;;;;;;-4.51;96.70;98517.34;10275318;28;20058;-55
2022/12/21 04:01:51;;;;;;;93.55;30.33;;;;;;;-4.55;96.01;98513.72;10274368;28;20534;-55
2022/12/21 04:06:52;;;;;;;87.93;28.08;;;;;;;-4.58;95.98;98520.22;10271024;28;20070;-55
2022/12/21 04:17:11;;;;;;;91.75;30.83;;;;;;;-4.63;95.92;98497.09;10273274;28;20053;-55
2022/12/21 04:28:06;;;;;;;79.70;28.85;;;;;;;-4.56;96.85;98501.81;10275223;28;20030;-55
2022/12/21 04:32:47;;;;;;;89.45;28.20;;;;;;;-4.38;96.60;98489.56;10274200;28;20069;-55
2022/12/21 04:37:45;;;;;;;126.43;29.05;;;;;;;-4.43;96.20;98471.50;10272745;28;20125;-55
2022/12/21 04:42:44;;;;;;;88.20;28.52;;;;;;;-4.47;96.07;98471.19;10272213;28;20034;-55
2022/12/21 04:47:43;;;;;;;90.43;29.45;;;;;;;-4.58;95.34;98464.50;10274941;28;20113;-55
2022/12/21 04:52:42;;;;;;;80.55;29.45;;;;;;;-4.58;95.37;98464.50;10272856;28;20044;-55
2022/12/21 04:57:41;;;;;;;114.40;30.88;;;;;;;-4.64;95.57;98450.66;10272475;28;20109;-55
2022/12/21 05:02:40;;;;;;;89.32;30.00;;;;;;;-4.65;95.49;98456.50;10271288;28;20034;-55
2022/12/21 05:07:39;;;;;;;107.40;32.97;;;;;;;-4.59;96.11;98462.75;10271760;28;20034;-55
2022/12/21 05:12:38;;;;;;;93.32;31.02;;;;;;;-4.50;95.98;98449.06;10267445;28;20029;-55
2022/12/21 05:17:37;;;;;;;81.70;30.08;;;;;;;-4.42;96.33;98439.44;10269831;28;20030;-55
2022/12/21 05:22:36;;;;;;;110.95;29.58;;;;;;;-4.34;95.62;98432.41;10270019;28;20027;-55
2022/12/21 05:27:35;;;;;;;80.30;30.35;;;;;;;-4.44;96.15;98438.50;10268558;28;20083;-55
2022/12/21 05:32:34;;;;;;;160.07;37.38;;;;;;;-4.52;96.24;98442.13;10271309;28;20043;-55
2022/12/21 05:37:33;;;;;;;114.50;30.30;;;;;;;-4.59;94.91;98429.84;10268968;28;20022;-55
2022/12/21 05:42:32;;;;;;;121.85;36.25;;;;;;;-4.69;96.09;98429.19;10269043;28;20034;-55
2022/12/21 05:47:31;;;;;;;94.53;35.00;;;;;;;-4.64;96.19;98425.31;10270931;28;20607;-55
2022/12/21 05:52:29;;;;;;;113.85;38.53;;;;;;;-4.64;96.03;98420.25;10266615;28;20022;-55
2022/12/21 05:57:28;;;;;;;;;;;;;;;-4.65;95.29;98428.66;10271054;28;20024;-55
2022/12/21 06:02:27;;;;;;;135.18;38.25;;;;;;;-4.73;95.81;98424.69;10267501;28;19957;-55
2022/12/21 06:07:26;;;;;;;93.70;36.22;;;;;;;-4.68;95.36;98430.06;10268136;28;20105;-55
2022/12/21 06:12:28;;;;;;;95.28;34.42;;;;;;;-4.72;95.24;98438.22;10252007;28;20157;-55
2022/12/21 06:17:28;;;;;;;111.32;40.58;;;;;;;-4.82;95.69;98435.06;10226902;28;20122;-55
2022/12/21 06:22:29;;;;;;;103.57;40.40;;;;;;;-4.78;95.79;98435.28;10226509;28;20043;-55
2022/12/21 06:27:28;;;;;;;129.18;49.75;;;;;;;-4.73;95.67;98428.88;10230300;28;20149;-55
2022/12/21 06:32:26;;;;;;;;;;;;;;;-4.69;95.52;98423.25;10232355;28;20117;-55
2022/12/21 06:37:25;;;;;;;82.63;34.30;;;;;;;-4.71;95.22;98430.75;10231395;28;19914;-55
2022/12/21 06:42:24;;;;;;;118.20;47.35;;;;;;;-4.62;95.89;98428.84;10239673;28;20056;-55
2022/12/21 06:47:23;;;;;;;87.75;38.45;;;;;;;-4.56;95.60;98442.69;10224718;28;20053;-55
2022/12/21 06:52:22;;;;;;;92.57;35.83;;;;;;;-4.73;95.34;98452.53;10227310;28;20034;-55
2022/12/21 06:57:21;;;;;;;107.22;39.40;;;;;;;-4.72;94.57;98456.84;10236332;28;20836;-55
2022/12/21 07:02:20;;;;;;;;;;;;;;;-4.53;95.71;98460.66;10235366;28;20027;-55
2022/12/21 07:07:19;;;;;;;88.95;35.78;;;;;;;-4.30;95.63;98458.03;10230927;28;19937;-55
2022/12/21 07:12:18;;;;;;;;;;;;;;;-4.11;94.94;98449.16;10228301;28;20121;-55
2022/12/21 07:17:17;;;;;;;113.72;48.83;;;;;;;-4.03;95.26;98448.00;10225953;28;20013;-55
2022/12/21 07:22:16;;;;;;;119.00;51.03;;;;;;;-4.13;94.11;98461.72;10227896;28;20031;-55
2022/12/21 07:27:14;;;;;;;112.28;48.58;;;;;;;-4.15;94.07;98460.72;10227402;28;20042;-55
2022/12/21 07:32:13;;;;;;;97.63;41.67;;;;;;;-3.98;94.50;98456.78;10231725;28;20148;-55
2022/12/21 07:37:12;;;;;;;116.55;51.25;;;;;;;-3.92;94.51;98446.19;10244518;28;20061;-55
2022/12/21 07:42:11;;;;;;;;;;;;;;;-3.81;93.49;98461.34;10242559;28;20061;-55
2022/12/21 07:47:10;;;;;;;91.47;40.40;;;;;;;-3.85;92.59;98458.50;10230536;28;20008;-55
2022/12/21 07:52:09;;;;;;;104.53;46.28;;;;;;;-3.81;93.42;98455.34;10230863;28;20034;-55
2022/12/21 07:57:08;;;;;;;85.57;39.15;;;;;;;-3.62;93.08;98444.78;10237107;28;20069;-55
2022/12/21 08:02:10;;;;;;;111.07;48.10;;;;;;;-3.48;92.48;98451.66;10237048;28;20153;-55
2022/12/21 08:07:09;;;;;;;90.72;40.85;;;;;;;-3.35;92.28;98446.56;10248256;28;20127;-55
2022/12/21 08:12:08;;;;;;;96.18;42.22;;;;;;;-3.26;91.55;98432.72;10251477;28;20085;-55
2022/12/21 08:17:07;;;;;;;93.53;41.10;;;;;;;-3.21;91.17;98428.81;10246319;28;20137;-55
2022/12/21 08:22:06;;;;;;;86.90;41.38;;;;;;;-3.10;90.58;98422.75;10249084;28;20077;-55
2022/12/21 08:27:05;;;;;;;103.97;51.72;;;;;;;-2.93;90.03;98419.59;10246711;28;20045;-55
2022/12/21 08:32:04;;;;;;;;;;;;;;;-2.75;89.34;98391.06;10246484;28;20073;-55
2022/12/21 08:37:02;;;;;;;99.05;46.72;;;;;;;-2.77;89.25;98374.84;10245177;28;19914;-55
2022/12/21 08:42:02;;;;;;;101.50;47.95;;;;;;;-2.91;89.13;98364.72;10233424;28;20112;-55
2022/12/21 08:47:01;;;;;;;86.95;42.13;;;;;;;-2.92;89.16;98364.59;10234857;28;20117;-55
2022/12/21 08:52:00;;;;;;;116.00;49.78;;;;;;;-3.01;89.18;98374.22;10227004;28;20141;-55
2022/12/21 08:56:59;;;;;;;80.10;36.15;;;;;;;-3.29;90.04;98364.00;10231777;28;20039;-55
2022/12/21 09:01:58;;;;;;;154.68;64.10;;;;;;;-3.35;90.51;98351.78;10229582;28;20486;-55
2022/12/21 09:06:57;;;;;;;78.30;36.78;;;;;;;-3.09;90.33;98332.22;10231393;28;20400;-55
2022/12/21 09:11:56;;;;;;;66.90;30.58;;;;;;;-2.79;90.64;98305.28;10228926;28;20049;-55
2022/12/21 09:16:55;;;;;;;78.22;36.80;;;;;;;-2.58;89.98;98304.00;10229129;28;20030;-55
2022/12/21 09:21:54;;;;;;;76.22;35.20;;;;;;;-2.51;88.41;98283.25;10235597;28;20053;-55
2022/12/21 09:26:53;;;;;;;88.85;39.92;;;;;;;-2.66;89.15;98282.38;10230023;28;20042;-55
2022/12/21 09:31:52;;;;;;;85.25;40.70;;;;;;;-2.90;89.25;98286.84;10227439;28;20117;-55
2022/12/21 09:36:51;;;;;;;71.95;29.73;;;;;;;-3.12;90.26;98270.34;10223289;28;20632;-55
2022/12/21 09:42:13;;;;;;;71.05;34.00;;;;;;;-2.87;89.72;98256.59;10227946;28;20054;-55
2022/12/21 09:47:21;;;;;;;70.57;30.75;;;;;;;-2.45;89.94;98261.53;10229719;28;20121;-54
2022/12/21 09:52:26;;;;;;;80.70;38.15;;;;;;;-2.17;88.73;98253.81;10218149;28;20775;-55
2022/12/21 09:57:32;;;;;;;73.25;36.80;;;;;;;-1.97;88.25;98242.25;10221960;28;20399;-55
2022/12/21 10:02:52;;;;;;;80.53;38.95;;;;;;;-1.72;87.84;98219.91;10228719;28;20117;-55
2022/12/21 10:08:10;;;;;;;;;;;;;;;-1.41;87.78;98231.72;10221288;28;20806;-55
2022/12/21 10:13:12;;;;;;;93.68;46.15;;;;;;;-1.13;87.30;98216.25;10233499;28;20490;-55
2022/12/21 10:18:35;;;;;;;93.95;45.70;;;;;;;-0.94;85.78;98207.88;10223153;28;20042;-55
2022/12/21 10:23:41;;;;;;;93.10;46.53;;;;;;;-1.01;85.83;98187.97;10224081;28;20113;-55
2022/12/21 10:28:52;;;;;;;106.53;51.05;;;;;;;-0.90;86.10;98186.84;10227633;28;20468;-55
2022/12/21 10:33:55;;;;;;;103.47;52.45;;;;;;;-0.71;85.50;98185.25;10226569;28;20061;-55
2022/12/21 10:38:54;;;;;;;102.90;55.38;;;;;;;-0.53;85.02;98178.50;10231636;28;20073;-55
2022/12/21 10:43:54;;;;;;;104.75;53.63;;;;;;;-0.37;83.76;98168.25;10228478;28;20031;-55
2022/12/21 10:48:58;;;;;;;105.95;53.92;;;;;;;-0.21;83.85;98161.31;10230464;28;20592;-55
2022/12/21 10:54:09;;;;;;;110.80;56.83;;;;;;;0.09;82.78;98151.69;10243050;28;20061;-55
2022/12/21 10:59:29;;;;;;;98.53;53.90;;;;;;;0.24;81.87;98151.50;10242026;28;20085;-55
2022/12/21 11:04:30;;;;;;;;;;;;;;;0.40;82.05;98147.97;10236088;28;20086;-55
2022/12/21 11:09:38;;;;;;;98.63;52.55;;;;;;;0.50;81.57;98150.16;10228168;28;20024;-55
2022/12/21 11:14:37;;;;;;;112.28;60.78;;;;;;;0.76;81.17;98141.09;10226202;28;20117;-56
2022/12/21 11:19:37;;;;;;;98.15;52.33;;;;;;;1.02;81.21;98120.91;10223118;28;20113;-55
2022/12/21 11:24:39;;;;;;;124.15;65.88;;;;;;;1.31;80.74;98115.28;10230770;28;20146;-55
2022/12/21 11:29:58;;;;;;;105.70;56.08;;;;;;;1.54;79.04;98110.25;10236793;28;20137;-56
2022/12/21 11:35:00;;;;;;;67.05;37.83;;;;;;;1.71;78.62;98101.56;10234889;28;20428;-56
2022/12/21 11:40:10;;;;;;;70.40;37.17;;;;;;;1.96;79.02;98094.84;10230918;28;20117;-55
2022/12/21 11:45:18;;;;;;;50.75;28.50;;;;;;;2.19;78.12;98089.72;10242659;28;20113;-55
2022/12/21 11:50:17;;;;;;;45.92;24.35;;;;;;;2.25;76.79;98080.56;10233539;28;20105;-56
2022/12/21 11:55:37;;;;;;;39.78;20.50;;;;;;;2.12;76.46;98079.25;10231915;28;20053;-56
2022/12/21 12:00:43;;;;;;;;;;;;;;;2.10;76.41;98070.63;10232071;28;20964;-56
2022/12/21 12:06:09;;;;;;;40.28;19.77;;;;;;;2.25;76.24;98067.75;10240328;28;20476;-56
2022/12/21 12:11:32;;;;;;;36.55;19.00;;;;;;;2.45;75.14;98059.94;10244748;28;20073;-56
2022/12/21 12:16:43;;;;;;;38.72;19.48;;;;;;;2.64;73.11;98043.53;10249827;28;20070;-56
2022/12/21 12:21:59;;;;;;;176.88;102.82;;;;;;;2.74;73.53;98043.00;10235469;28;20114;-56
2022/12/21 12:27:07;;;;;;;48.92;27.52;;;;;;;2.98;72.88;98037.84;10234562;28;20125;-56
2022/12/21 12:32:07;;;;;;;40.38;21.52;;;;;;;3.14;69.51;98029.84;10245157;28;20065;-56
2022/12/21 12:37:44;;;;;;;156.85;68.95;;;;;;;3.36;68.75;98041.66;10241481;28;20175;-56
2022/12/21 12:42:54;;;;;;;39.65;20.38;;;;;;;3.44;66.09;98035.06;10236594;28;20122;-56
2022/12/21 12:48:08;;;;;;;27.80;15.95;;;;;;;3.44;64.36;98042.78;10245133;28;20492;-56
2022/12/21 12:53:19;;;;;;;22.98;11.70;;;;;;;3.49;62.95;98040.34;10249620;28;20057;-57
2022/12/21 12:58:42;;;;;;;24.35;12.57;;;;;;;3.59;62.71;98036.41;10246146;28;20476;-56
2022/12/21 13:03:53;;;;;;;28.02;13.65;;;;;;;3.81;63.10;98028.50;10238678;28;20062;-56
2022/12/21 13:09:01;;;;;;;24.92;12.95;;;;;;;4.00;62.29;98034.19;10248014;28;20066;-56
2022/12/21 13:14:06;;;;;;;27.45;13.63;;;;;;;4.18;62.13;98023.59;10246842;28;20058;-56
2022/12/21 13:19:08;;;;;;;24.25;13.73;;;;;;;4.32;62.14;98026.56;10236969;28;20138;-56
2022/12/21 13:24:37;;;;;;;25.63;15.50;;;;;;;4.47;61.50;98019.25;10238567;28;20138;-56
2022/12/21 13:30:17;;;;;;;29.75;14.93;;;;;;;4.56;60.17;98016.94;10244070;28;20061;-56
2022/12/21 13:35:24;;;;;;;29.42;17.88;;;;;;;4.68;59.89;98013.81;10237514;28;20065;-56
2022/12/21 13:40:46;;;;;;;29.48;16.88;;;;;;;4.74;59.45;98002.84;10236983;28;20121;-56
2022/12/21 13:45:58;;;;;;;26.55;16.30;;;;;;;4.80;59.10;98008.13;10235050;28;20145;-56
2022/12/21 13:51:26;;;;;;;36.13;18.73;;;;;;;4.82;59.71;98009.03;10240147;28;20062;-56
2022/12/21 13:57:02;;;;;;;34.05;19.05;;;;;;;4.80;60.45;98006.41;10229087;28;20121;-56
2022/12/21 14:02:29;;;;;;;33.72;19.70;;;;;;;4.68;60.66;98006.09;10243552;28;20499;-56
2022/12/21 14:08:19;;;;;;;45.38;24.20;;;;;;;4.61;60.63;98014.50;10228225;28;20593;-56
2022/12/21 14:13:50;;;;;;;51.67;30.38;;;;;;;4.45;61.23;98014.06;10214982;28;20261;-56
2022/12/21 14:18:56;;;;;;;68.75;38.10;;;;;;;4.28;61.63;98013.59;10215969;28;20129;-56
2022/12/21 14:23:58;;;;;;;80.63;46.85;;;;;;;4.16;62.14;98026.13;10239867;28;20121;-56
2022/12/21 14:29:10;;;;;;;90.85;48.60;;;;;;;3.98;62.59;98023.88;10220887;28;20121;-56
2022/12/21 14:34:09;;;;;;;82.60;50.17;;;;;;;3.83;62.94;98032.00;10237902;28;20061;-56
2022/12/21 14:39:08;;;;;;;94.68;56.83;;;;;;;3.66;63.54;98033.19;10237658;28;20133;-56
2022/12/21 14:44:14;;;;;;;101.57;55.75;;;;;;;3.34;64.72;98029.63;10230970;28;20041;-56
2022/12/21 14:49:40;;;;;;;106.03;62.90;;;;;;;3.10;65.89;98020.31;10240580;28;20089;-56
2022/12/21 14:54:43;;;;;;;108.32;64.80;;;;;;;2.86;66.47;98025.47;10237508;28;20141;-56
2022/12/21 14:59:47;;;;;;;113.18;66.57;;;;;;;2.57;67.24;98017.69;10240222;28;20142;-56
2022/12/21 15:04:50;;;;;;;106.45;61.45;;;;;;;2.33;68.19;98017.72;10242622;28;20117;-56
2022/12/21 15:09:56;;;;;;;111.85;65.47;;;;;;;2.14;69.44;98016.19;10239313;28;20125;-56
2022/12/21 15:14:57;;;;;;;111.50;61.78;;;;;;;1.99;69.75;98020.72;10234057;28;20054;-56
2022/12/21 15:20:01;;;;;;;109.63;58.90;;;;;;;1.82;70.78;98014.13;10228142;28;20468;-56
2022/12/21 15:25:09;;;;;;;131.50;73.13;;;;;;;1.65;71.77;98024.59;10224089;28;20817;-56
2022/12/21 15:30:37;;;;;;;126.60;73.35;;;;;;;1.46;72.20;98014.47;10229842;28;20137;-56
2022/12/21 15:35:40;;;;;;;136.07;83.22;;;;;;;1.32;72.71;98006.25;10230263;28;20113;-56
2022/12/21 15:40:42;;;;;;;141.48;80.03;;;;;;;1.21;73.08;98005.81;10238119;28;20068;-56
2022/12/21 15:46:09;;;;;;;157.02;93.40;;;;;;;1.11;73.62;98011.38;10236845;28;20078;-56
2022/12/21 15:51:27;;;;;;;162.38;102.47;;;;;;;1.05;73.81;97994.09;10238189;28;20667;-56
2022/12/21 15:56:28;;;;;;;205.25;113.00;;;;;;;1.02;74.55;97998.25;10235445;28;20109;-56
2022/12/21 16:01:29;;;;;;;184.20;104.05;;;;;;;0.94;74.92;98009.81;10237914;28;20122;-56
2022/12/21 16:06:28;;;;;;;180.70;96.45;;;;;;;0.88;75.27;98006.22;10214412;28;20173;-56
2022/12/21 16:11:35;;;;;;;139.10;78.82;;;;;;;0.80;75.88;98007.59;10227023;28;20043;-56
2022/12/21 16:16:34;;;;;;;150.85;84.32;;;;;;;0.74;76.51;98011.56;10234775;28;20557;-56
2022/12/21 16:21:34;;;;;;;159.80;89.20;;;;;;;0.59;76.73;98012.69;10241376;28;20117;-56
2022/12/21 16:26:33;;;;;;;;;;;;;;;0.49;76.61;98023.28;10243667;28;20129;-56
2022/12/21 16:31:32;;;;;;;172.20;93.07;;;;;;;0.38;77.28;98009.19;10235989;28;20012;-56
2022/12/21 16:36:31;;;;;;;174.40;95.50;;;;;;;0.29;77.86;98031.75;10225293;28;20076;-56
2022/12/21 16:41:31;;;;;;;174.38;95.05;;;;;;;0.23;77.92;98028.13;10244686;28;20304;-56
2022/12/21 16:46:39;;;;;;;146.07;83.60;;;;;;;0.16;78.15;98025.25;10242497;28;20475;-56
2022/12/21 16:51:40;;;;;;;242.98;121.43;;;;;;;0.07;78.77;98019.75;10239411;28;20084;-56
2022/12/21 16:56:48;;;;;;;170.30;99.15;;;;;;;0.01;78.97;98028.88;10246184;28;20522;-56
2022/12/21 17:02:03;;;;;;;209.25;113.55;;;;;;;-0.07;79.39;98021.69;10241219;28;20069;-56
2022/12/21 17:07:34;;;;;;;211.70;114.28;;;;;;;-0.22;80.20;98002.34;10242219;28;20841;-56
2022/12/21 17:12:36;;;;;;;206.80;111.68;;;;;;;-0.22;80.80;98021.88;10229296;28;20455;-56
2022/12/21 17:17:43;;;;;;;197.02;111.25;;;;;;;-0.27;81.02;98013.16;10241973;28;20065;-56
2022/12/21 17:22:55;;;;;;;201.50;123.55;;;;;;;-0.33;80.82;98002.66;10228283;28;20125;-56
2022/12/21 17:27:57;;;;;;;378.00;216.98;;;;;;;-0.50;81.16;97997.66;10235403;28;20173;-56
2022/12/21 17:32:57;;;;;;;331.35;189.52;;;;;;;-0.47;81.56;98005.44;10237728;28;20149;-56
2022/12/21 17:37:56;;;;;;;308.98;173.40;;;;;;;-0.57;82.02;97997.31;10225835;28;20499;-56
2022/12/21 17:42:55;;;;;;;443.23;251.32;;;;;;;-0.63;82.48;97998.75;10239161;28;20057;-56
2022/12/21 17:47:54;;;;;;;475.20;277.48;;;;;;;-0.66;83.02;97990.97;10244674;28;20053;-55
2022/12/21 17:52:54;;;;;;;445.40;268.17;;;;;;;-0.72;83.41;97994.91;10244236;28;20491;-55
2022/12/21 17:57:53;;;;;;;421.42;237.75;;;;;;;-0.83;83.84;97977.44;10242256;28;20137;-56
2022/12/21 18:02:56;;;;;;;341.45;188.70;;;;;;;-0.77;84.30;97997.22;10241021;28;20081;-55
2022/12/21 18:07:56;;;;;;;205.75;114.22;;;;;;;-0.84;83.85;97988.44;10228012;28;20674;-55
2022/12/21 18:12:55;;;;;;;221.98;116.72;;;;;;;-0.85;84.43;98001.97;10242119;28;20065;-55
2022/12/21 18:18:11;;;;;;;271.52;145.30;;;;;;;-0.94;84.35;97985.38;10241349;28;20278;-55
2022/12/21 18:23:20;;;;;;;283.60;153.15;;;;;;;-0.94;84.32;97995.56;10236829;28;20516;-56
2022/12/21 18:28:21;;;;;;;356.00;197.13;;;;;;;-0.99;85.04;97987.72;10232499;28;20137;-56
2022/12/21 18:33:22;;;;;;;365.63;199.13;;;;;;;-1.04;84.46;97997.69;10235234;28;20550;-56
2022/12/21 18:38:31;;;;;;;371.35;199.80;;;;;;;-1.05;85.16;97990.84;10223291;28;20113;-55
2022/12/21 18:43:34;;;;;;;295.05;152.70;;;;;;;-1.13;85.28;97991.28;10222377;28;20449;-55
2022/12/21 18:48:33;;;;;;;322.33;177.73;;;;;;;-1.29;85.59;97982.00;10232300;28;20133;-55
2022/12/21 18:53:32;;;;;;;317.30;177.48;;;;;;;-1.29;85.60;97985.41;10229356;28;20121;-56
2022/12/21 18:58:31;;;;;;;311.95;163.80;;;;;;;-1.33;86.01;97980.09;10228536;28;20026;-56
2022/12/21 19:03:30;;;;;;;215.88;118.18;;;;;;;-1.47;87.35;97981.97;10240655;28;20040;-56
2022/12/21 19:08:29;;;;;;;216.35;112.45;;;;;;;-1.48;87.79;97964.97;10235680;28;20552;-56
2022/12/21 19:13:30;;;;;;;199.25;101.03;;;;;;;-1.46;87.95;97973.53;10210755;28;20042;-59
2022/12/21 19:18:35;;;;;;;116.20;59.28;;;;;;;-1.44;87.87;97961.78;10237271;28;20133;-55
2022/12/21 19:23:34;;;;;;;100.35;48.25;;;;;;;-1.47;87.92;97961.59;10229183;28;20125;-56
2022/12/21 19:28:33;;;;;;;113.65;57.95;;;;;;;-1.48;88.21;97962.41;10229370;28;20538;-55
2022/12/21 19:33:32;;;;;;;130.77;68.93;;;;;;;-1.54;87.97;97960.44;10239291;28;20479;-55
2022/12/21 19:38:31;;;;;;;191.05;103.22;;;;;;;-1.58;88.73;97965.31;10233255;28;20049;-55
2022/12/21 19:43:30;;;;;;;549.03;162.32;;;;;;;-1.65;89.07;97962.44;10236549;28;20077;-56
2022/12/21 19:48:36;;;;;;;110.50;56.50;;;;;;;-1.61;89.23;97963.47;10247536;28;20035;-55
2022/12/21 19:53:37;;;;;;;120.15;58.75;;;;;;;-1.65;88.94;97957.38;10241642;28;20539;-55
2022/12/21 19:58:38;;;;;;;117.97;56.22;;;;;;;-1.68;89.58;97951.22;10248339;28;20080;-55
2022/12/21 20:03:37;;;;;;;110.68;54.78;;;;;;;-1.69;89.75;97964.75;10246270;28;20127;-56
2022/12/21 20:08:36;;;;;;;129.32;65.18;;;;;;;-1.79;89.67;97963.44;10249254;28;20552;-56
2022/12/21 20:13:35;;;;;;;125.38;59.67;;;;;;;-1.87;90.54;97957.97;10237621;28;20132;-56
2022/12/21 20:18:34;;;;;;;110.47;52.22;;;;;;;-1.89;90.56;97962.09;10246401;28;20038;-56
2022/12/21 20:23:33;;;;;;;99.00;47.83;;;;;;;-1.88;89.87;97968.06;10235773;28;20042;-56
2022/12/21 20:28:32;;;;;;;116.38;60.22;;;;;;;-1.92;90.20;97966.13;10229821;28;20053;-56
2022/12/21 20:33:32;;;;;;;99.35;50.85;;;;;;;-1.97;90.57;97977.75;10239248;28;20475;-56
2022/12/21 20:38:31;;;;;;;104.05;54.28;;;;;;;-2.02;90.51;97980.06;10238131;28;20122;-56
2022/12/21 20:43:46;;;;;;;118.28;56.60;;;;;;;-2.06;90.34;97973.06;10245723;28;20085;-55
2022/12/21 20:48:45;;;;;;;115.43;56.28;;;;;;;-2.06;90.62;97985.78;10243738;28;20117;-55
2022/12/21 20:53:44;;;;;;;;;;;;;;;-2.09;90.04;97988.16;10242731;28;20576;-56
2022/12/21 20:58:42;;;;;;;152.73;78.15;;;;;;;-2.10;90.73;97986.41;10244503;28;20454;-55
2022/12/21 21:03:42;;;;;;;161.70;82.60;;;;;;;-2.11;90.71;97985.53;10246251;28;20096;-56
2022/12/21 21:08:44;;;;;;;210.75;102.03;;;;;;;-2.13;90.30;97986.25;10244499;28;20082;-56
2022/12/21 21:13:42;;;;;;;308.67;150.75;;;;;;;-2.15;90.60;97988.72;10242010;28;20559;-56
2022/12/21 21:18:41;;;;;;;308.63;150.35;;;;;;;-2.13;90.87;97984.56;10244240;28;20510;-56
2022/12/21 21:23:40;;;;;;;312.92;156.77;;;;;;;-2.17;90.50;97982.69;10241789;28;20038;-56
2022/12/21 21:28:39;;;;;;;261.08;132.43;;;;;;;-2.22;90.41;97976.47;10243400;28;20042;-56
2022/12/21 21:33:38;;;;;;;262.98;134.55;;;;;;;-2.23;90.91;97973.88;10243520;28;20038;-56
2022/12/21 21:44:04;;;;;;;142.82;72.60;;;;;;;-2.32;90.67;97985.28;10245838;28;20069;-56
2022/12/21 21:49:19;;;;;;;142.82;71.18;;;;;;;-2.36;91.31;97983.41;10242430;28;20527;-56
2022/12/21 21:54:20;;;;;;;147.23;82.53;;;;;;;-2.43;91.92;97975.34;10237578;28;20133;-56
2022/12/21 21:59:25;;;;;;;186.90;84.38;;;;;;;-2.44;91.40;97979.56;10238999;28;20487;-56
2022/12/21 22:04:25;;;;;;;182.95;72.72;;;;;;;-2.42;91.31;97972.03;10238459;28;20698;-56
2022/12/21 22:09:24;;;;;;;216.40;84.97;;;;;;;-2.44;91.40;97978.69;10238003;28;20129;-57
2022/12/21 22:15:11;;;;;;;524.03;192.43;;;;;;;-2.45;91.05;97976.91;10239417;28;20523;-56
2022/12/21 22:46:28;;;;;;;324.60;112.45;;;;;;;-2.62;91.13;97974.34;10239947;28;20133;-56
2022/12/21 22:51:30;;;;;;;97.38;44.90;;;;;;;-2.62;91.45;97983.66;10233999;28;20038;-55
2022/12/21 22:56:33;;;;;;;87.72;42.22;;;;;;;-2.69;91.58;97969.75;10240104;28;20458;-55
2022/12/21 23:01:33;;;;;;;81.75;36.97;;;;;;;-2.73;91.95;97967.84;10235491;28;20109;-56
2022/12/21 23:06:32;;;;;;;87.93;42.78;;;;;;;-2.75;91.39;97969.44;10241045;28;20117;-56
2022/12/21 23:11:39;;;;;;;124.38;60.40;;;;;;;-2.89;92.20;97957.66;10236250;28;20049;-56
2022/12/21 23:16:38;;;;;;;133.20;70.65;;;;;;;-2.92;92.20;97953.25;10237915;28;20124;-56
